sensor_id;sensor_type;location;lat;lon;timestamp;P1;durP1;ratioP1;P2;durP2;ratioP2
4694;SDS011;2361;49.540;8.390;2023-06-10T00:02:20;8.70;;;6.10;;
4694;SDS011;2361;49.540;8.390;2023-06-10T00:04:48;7.37;;;6.53;;
4694;SDS011;2361;49.540;8.390;2023-06-10T00:07:15;10.57;;;7.83;;
4694;SDS011;2361;49.540;8.390;2023-06-10T00:09:42;9.53;;;7.27;;
4694;SDS011;2361;49.540;8.390;2023-06-10T00:12:09;9.10;;;7.23;;
4694;SDS011;2361;49.540;8.390;2023-06-10T00:14:39;7.20;;;6.20;;
4694;SDS011;2361;49.540;8.390;2023-06-10T00:17:09;15.93;;;7.77;;
4694;SDS011;2361;49.540;8.390;2023-06-10T00:19:37;9.40;;;6.90;;
4694;SDS011;2361;49.540;8.390;2023-06-10T00:22:07;9.20;;;6.83;;
4694;SDS011;2361;49.540;8.390;2023-06-10T00:24:37;9.93;;;7.00;;
4694;SDS011;2361;49.540;8.390;2023-06-10T00:27:05;9.30;;;7.23;;
4694;SDS011;2361;49.540;8.390;2023-06-10T00:29:33;10.50;;;7.43;;
4694;SDS011;2361;49.540;8.390;2023-06-10T00:32:00;9.17;;;6.70;;
4694;SDS011;2361;49.540;8.390;2023-06-10T00:34:27;10.80;;;7.20;;
4694;SDS011;2361;49.540;8.390;2023-06-10T00:36:54;7.80;;;6.67;;
4694;SDS011;2361;49.540;8.390;2023-06-10T00:39:21;8.27;;;6.40;;
4694;SDS011;2361;49.540;8.390;2023-06-10T00:41:48;7.93;;;6.10;;
4694;SDS011;2361;49.540;8.390;2023-06-10T00:44:15;8.97;;;6.67;;
4694;SDS011;2361;49.540;8.390;2023-06-10T00:46:43;8.13;;;6.13;;
4694;SDS011;2361;49.540;8.390;2023-06-10T00:49:10;7.67;;;6.00;;
4694;SDS011;2361;49.540;8.390;2023-06-10T00:51:38;8.70;;;6.70;;
4694;SDS011;2361;49.540;8.390;2023-06-10T00:54:06;7.27;;;6.00;;
4694;SDS011;2361;49.540;8.390;2023-06-10T00:56:34;6.00;;;4.83;;
4694;SDS011;2361;49.540;8.390;2023-06-10T00:59:02;8.47;;;6.40;;
4694;SDS011;2361;49.540;8.390;2023-06-10T01:01:30;8.93;;;6.23;;
4694;SDS011;2361;49.540;8.390;2023-06-10T01:03:58;11.10;;;6.40;;
4694;SDS011;2361;49.540;8.390;2023-06-10T01:06:32;9.10;;;6.00;;
4694;SDS011;2361;49.540;8.390;2023-06-10T01:09:33;7.83;;;5.60;;
4694;SDS011;2361;49.540;8.390;2023-06-10T01:15:15;9.60;;;6.80;;
4694;SDS011;2361;49.540;8.390;2023-06-10T01:17:59;8.40;;;6.30;;
4694;SDS011;2361;49.540;8.390;2023-06-10T01:20:28;9.23;;;6.67;;
4694;SDS011;2361;49.540;8.390;2023-06-10T01:22:59;7.90;;;6.27;;
4694;SDS011;2361;49.540;8.390;2023-06-10T01:25:27;8.60;;;6.53;;
4694;SDS011;2361;49.540;8.390;2023-06-10T01:28:02;9.73;;;7.23;;
4694;SDS011;2361;49.540;8.390;2023-06-10T01:30:53;7.70;;;6.67;;
4694;SDS011;2361;49.540;8.390;2023-06-10T01:33:46;8.67;;;7.00;;
4694;SDS011;2361;49.540;8.390;2023-06-10T01:36:17;12.80;;;6.60;;
4694;SDS011;2361;49.540;8.390;2023-06-10T01:38:46;9.03;;;6.80;;
4694;SDS011;2361;49.540;8.390;2023-06-10T01:41:15;9.67;;;6.50;;
4694;SDS011;2361;49.540;8.390;2023-06-10T01:43:44;10.43;;;7.60;;
4694;SDS011;2361;49.540;8.390;2023-06-10T01:46:12;10.60;;;7.13;;
4694;SDS011;2361;49.540;8.390;2023-06-10T01:48:41;8.73;;;7.20;;
4694;SDS011;2361;49.540;8.390;2023-06-10T01:51:08;7.03;;;5.93;;
4694;SDS011;2361;49.540;8.390;2023-06-10T01:53:35;7.87;;;6.80;;
4694;SDS011;2361;49.540;8.390;2023-06-10T01:56:02;8.17;;;6.37;;
4694;SDS011;2361;49.540;8.390;2023-06-10T01:58:29;8.73;;;6.30;;
4694;SDS011;2361;49.540;8.390;2023-06-10T02:00:56;8.77;;;6.70;;
4694;SDS011;2361;49.540;8.390;2023-06-10T02:03:23;11.90;;;6.40;;
4694;SDS011;2361;49.540;8.390;2023-06-10T02:05:51;9.67;;;7.33;;
4694;SDS011;2361;49.540;8.390;2023-06-10T02:08:19;11.23;;;7.63;;
4694;SDS011;2361;49.540;8.390;2023-06-10T02:10:46;9.33;;;7.33;;
4694;SDS011;2361;49.540;8.390;2023-06-10T02:13:13;8.43;;;6.40;;
4694;SDS011;2361;49.540;8.390;2023-06-10T02:15:40;7.90;;;6.80;;
4694;SDS011;2361;49.540;8.390;2023-06-10T02:18:07;9.50;;;7.20;;
4694;SDS011;2361;49.540;8.390;2023-06-10T02:20:34;9.47;;;6.70;;
4694;SDS011;2361;49.540;8.390;2023-06-10T02:23:01;7.23;;;5.90;;
4694;SDS011;2361;49.540;8.390;2023-06-10T02:25:28;8.93;;;6.20;;
4694;SDS011;2361;49.540;8.390;2023-06-10T02:27:55;7.53;;;6.40;;
4694;SDS011;2361;49.540;8.390;2023-06-10T02:30:22;9.63;;;7.40;;
4694;SDS011;2361;49.540;8.390;2023-06-10T02:32:49;8.63;;;6.23;;
4694;SDS011;2361;49.540;8.390;2023-06-10T02:35:17;7.73;;;5.83;;
4694;SDS011;2361;49.540;8.390;2023-06-10T02:37:44;7.83;;;5.47;;
4694;SDS011;2361;49.540;8.390;2023-06-10T02:40:11;7.97;;;5.83;;
4694;SDS011;2361;49.540;8.390;2023-06-10T02:42:38;7.40;;;5.90;;
4694;SDS011;2361;49.540;8.390;2023-06-10T02:45:05;7.77;;;6.13;;
4694;SDS011;2361;49.540;8.390;2023-06-10T02:47:34;9.53;;;6.80;;
4694;SDS011;2361;49.540;8.390;2023-06-10T02:50:01;9.70;;;7.30;;
4694;SDS011;2361;49.540;8.390;2023-06-10T02:52:28;8.00;;;5.90;;
4694;SDS011;2361;49.540;8.390;2023-06-10T02:54:56;7.37;;;5.60;;
4694;SDS011;2361;49.540;8.390;2023-06-10T02:57:23;8.73;;;6.47;;
4694;SDS011;2361;49.540;8.390;2023-06-10T02:59:50;7.23;;;5.73;;
4694;SDS011;2361;49.540;8.390;2023-06-10T03:02:17;6.83;;;5.93;;
4694;SDS011;2361;49.540;8.390;2023-06-10T03:04:44;8.40;;;6.50;;
4694;SDS011;2361;49.540;8.390;2023-06-10T03:07:11;8.20;;;6.20;;
4694;SDS011;2361;49.540;8.390;2023-06-10T03:09:38;7.10;;;6.13;;
4694;SDS011;2361;49.540;8.390;2023-06-10T03:12:07;8.10;;;6.27;;
4694;SDS011;2361;49.540;8.390;2023-06-10T03:14:34;11.43;;;7.07;;
4694;SDS011;2361;49.540;8.390;2023-06-10T03:17:02;6.60;;;5.33;;
4694;SDS011;2361;49.540;8.390;2023-06-10T03:19:29;7.50;;;5.43;;
4694;SDS011;2361;49.540;8.390;2023-06-10T03:22:10;7.20;;;6.17;;
4694;SDS011;2361;49.540;8.390;2023-06-10T03:24:39;7.10;;;5.20;;
4694;SDS011;2361;49.540;8.390;2023-06-10T03:27:07;8.03;;;6.30;;
4694;SDS011;2361;49.540;8.390;2023-06-10T03:29:35;9.90;;;6.90;;
4694;SDS011;2361;49.540;8.390;2023-06-10T03:32:02;8.30;;;6.37;;
4694;SDS011;2361;49.540;8.390;2023-06-10T03:34:29;9.13;;;6.57;;
4694;SDS011;2361;49.540;8.390;2023-06-10T03:36:56;7.90;;;6.20;;
4694;SDS011;2361;49.540;8.390;2023-06-10T03:39:25;10.77;;;7.30;;
4694;SDS011;2361;49.540;8.390;2023-06-10T03:41:55;9.10;;;7.40;;
4694;SDS011;2361;49.540;8.390;2023-06-10T03:44:24;8.70;;;6.87;;
4694;SDS011;2361;49.540;8.390;2023-06-10T03:46:54;10.07;;;6.70;;
4694;SDS011;2361;49.540;8.390;2023-06-10T03:49:22;9.67;;;7.60;;
4694;SDS011;2361;49.540;8.390;2023-06-10T03:51:52;10.50;;;7.60;;
4694;SDS011;2361;49.540;8.390;2023-06-10T03:54:20;10.80;;;7.27;;
4694;SDS011;2361;49.540;8.390;2023-06-10T03:56:47;10.03;;;7.87;;
4694;SDS011;2361;49.540;8.390;2023-06-10T03:59:15;13.27;;;8.80;;
4694;SDS011;2361;49.540;8.390;2023-06-10T04:01:42;10.10;;;7.60;;
4694;SDS011;2361;49.540;8.390;2023-06-10T04:04:12;11.90;;;8.30;;
4694;SDS011;2361;49.540;8.390;2023-06-10T04:06:43;10.30;;;8.20;;
4694;SDS011;2361;49.540;8.390;2023-06-10T04:09:11;11.77;;;8.20;;
4694;SDS011;2361;49.540;8.390;2023-06-10T04:11:38;13.53;;;8.60;;
4694;SDS011;2361;49.540;8.390;2023-06-10T04:14:05;9.60;;;6.70;;
4694;SDS011;2361;49.540;8.390;2023-06-10T04:16:32;14.90;;;7.50;;
4694;SDS011;2361;49.540;8.390;2023-06-10T04:18:59;12.40;;;8.40;;
4694;SDS011;2361;49.540;8.390;2023-06-10T04:21:27;9.97;;;8.30;;
4694;SDS011;2361;49.540;8.390;2023-06-10T04:23:54;10.77;;;7.60;;
4694;SDS011;2361;49.540;8.390;2023-06-10T04:26:21;10.47;;;7.73;;
4694;SDS011;2361;49.540;8.390;2023-06-10T04:28:48;11.40;;;7.10;;
4694;SDS011;2361;49.540;8.390;2023-06-10T04:31:15;10.77;;;7.43;;
4694;SDS011;2361;49.540;8.390;2023-06-10T04:33:42;8.83;;;7.10;;
4694;SDS011;2361;49.540;8.390;2023-06-10T04:36:09;7.90;;;6.70;;
4694;SDS011;2361;49.540;8.390;2023-06-10T04:38:36;8.03;;;6.13;;
4694;SDS011;2361;49.540;8.390;2023-06-10T04:41:03;6.90;;;6.20;;
4694;SDS011;2361;49.540;8.390;2023-06-10T04:43:30;12.90;;;7.17;;
4694;SDS011;2361;49.540;8.390;2023-06-10T04:45:58;10.50;;;7.97;;
4694;SDS011;2361;49.540;8.390;2023-06-10T04:48:25;7.00;;;5.67;;
4694;SDS011;2361;49.540;8.390;2023-06-10T04:50:52;11.77;;;8.77;;
4694;SDS011;2361;49.540;8.390;2023-06-10T04:53:20;9.30;;;6.60;;
4694;SDS011;2361;49.540;8.390;2023-06-10T04:55:47;10.70;;;7.90;;
4694;SDS011;2361;49.540;8.390;2023-06-10T04:58:14;9.00;;;6.40;;
4694;SDS011;2361;49.540;8.390;2023-06-10T05:00:41;6.77;;;5.43;;
4694;SDS011;2361;49.540;8.390;2023-06-10T05:03:10;4.10;;;3.47;;
4694;SDS011;2361;49.540;8.390;2023-06-10T05:05:37;9.90;;;7.53;;
4694;SDS011;2361;49.540;8.390;2023-06-10T05:08:04;6.80;;;5.93;;
4694;SDS011;2361;49.540;8.390;2023-06-10T05:10:33;15.13;;;8.90;;
4694;SDS011;2361;49.540;8.390;2023-06-10T05:13:01;9.23;;;6.80;;
4694;SDS011;2361;49.540;8.390;2023-06-10T05:15:29;8.97;;;7.07;;
4694;SDS011;2361;49.540;8.390;2023-06-10T05:17:57;5.70;;;4.83;;
4694;SDS011;2361;49.540;8.390;2023-06-10T05:20:29;5.60;;;5.10;;
4694;SDS011;2361;49.540;8.390;2023-06-10T05:22:56;6.60;;;5.63;;
4694;SDS011;2361;49.540;8.390;2023-06-10T05:25:23;9.17;;;7.60;;
4694;SDS011;2361;49.540;8.390;2023-06-10T05:27:52;7.77;;;6.40;;
4694;SDS011;2361;49.540;8.390;2023-06-10T05:30:19;7.53;;;6.10;;
4694;SDS011;2361;49.540;8.390;2023-06-10T05:32:48;6.57;;;5.87;;
4694;SDS011;2361;49.540;8.390;2023-06-10T05:35:15;10.70;;;7.30;;
4694;SDS011;2361;49.540;8.390;2023-06-10T05:37:42;8.07;;;6.27;;
4694;SDS011;2361;49.540;8.390;2023-06-10T05:40:10;8.03;;;6.70;;
4694;SDS011;2361;49.540;8.390;2023-06-10T05:42:37;8.90;;;7.30;;
4694;SDS011;2361;49.540;8.390;2023-06-10T05:45:05;8.40;;;7.00;;
4694;SDS011;2361;49.540;8.390;2023-06-10T05:47:33;6.83;;;5.40;;
4694;SDS011;2361;49.540;8.390;2023-06-10T05:50:00;8.97;;;7.80;;
4694;SDS011;2361;49.540;8.390;2023-06-10T05:52:27;4.97;;;3.77;;
4694;SDS011;2361;49.540;8.390;2023-06-10T05:54:54;6.87;;;5.90;;
4694;SDS011;2361;49.540;8.390;2023-06-10T05:57:21;7.40;;;6.53;;
4694;SDS011;2361;49.540;8.390;2023-06-10T05:59:48;7.77;;;6.63;;
4694;SDS011;2361;49.540;8.390;2023-06-10T06:02:15;10.53;;;8.30;;
4694;SDS011;2361;49.540;8.390;2023-06-10T06:04:42;10.90;;;7.20;;
4694;SDS011;2361;49.540;8.390;2023-06-10T06:07:10;9.60;;;6.50;;
4694;SDS011;2361;49.540;8.390;2023-06-10T06:09:37;8.10;;;7.20;;
4694;SDS011;2361;49.540;8.390;2023-06-10T06:12:04;8.13;;;6.00;;
4694;SDS011;2361;49.540;8.390;2023-06-10T06:14:36;8.27;;;6.00;;
4694;SDS011;2361;49.540;8.390;2023-06-10T06:17:07;9.23;;;7.70;;
4694;SDS011;2361;49.540;8.390;2023-06-10T06:19:34;9.10;;;7.77;;
4694;SDS011;2361;49.540;8.390;2023-06-10T06:22:01;6.03;;;5.43;;
4694;SDS011;2361;49.540;8.390;2023-06-10T06:24:28;5.10;;;4.27;;
4694;SDS011;2361;49.540;8.390;2023-06-10T06:26:56;8.87;;;7.40;;
4694;SDS011;2361;49.540;8.390;2023-06-10T06:29:23;10.77;;;7.13;;
4694;SDS011;2361;49.540;8.390;2023-06-10T06:31:49;8.73;;;7.43;;
4694;SDS011;2361;49.540;8.390;2023-06-10T06:34:17;7.90;;;7.20;;
4694;SDS011;2361;49.540;8.390;2023-06-10T06:36:44;10.50;;;6.93;;
4694;SDS011;2361;49.540;8.390;2023-06-10T06:39:11;6.53;;;5.87;;
4694;SDS011;2361;49.540;8.390;2023-06-10T06:41:38;7.47;;;6.67;;
4694;SDS011;2361;49.540;8.390;2023-06-10T06:44:05;4.90;;;4.50;;
4694;SDS011;2361;49.540;8.390;2023-06-10T06:46:32;4.80;;;4.40;;
4694;SDS011;2361;49.540;8.390;2023-06-10T06:48:59;10.27;;;6.60;;
4694;SDS011;2361;49.540;8.390;2023-06-10T06:51:26;5.67;;;5.17;;
4694;SDS011;2361;49.540;8.390;2023-06-10T06:53:53;5.40;;;4.90;;
4694;SDS011;2361;49.540;8.390;2023-06-10T06:56:23;5.30;;;4.90;;
4694;SDS011;2361;49.540;8.390;2023-06-10T06:58:50;4.67;;;4.30;;
4694;SDS011;2361;49.540;8.390;2023-06-10T07:01:17;5.13;;;4.73;;
4694;SDS011;2361;49.540;8.390;2023-06-10T07:03:44;7.00;;;6.40;;
4694;SDS011;2361;49.540;8.390;2023-06-10T07:06:12;8.57;;;6.10;;
4694;SDS011;2361;49.540;8.390;2023-06-10T07:08:39;5.30;;;4.80;;
4694;SDS011;2361;49.540;8.390;2023-06-10T07:11:11;6.10;;;5.60;;
4694;SDS011;2361;49.540;8.390;2023-06-10T07:13:38;5.20;;;4.80;;
4694;SDS011;2361;49.540;8.390;2023-06-10T07:16:05;7.93;;;5.47;;
4694;SDS011;2361;49.540;8.390;2023-06-10T07:18:40;6.07;;;5.67;;
4694;SDS011;2361;49.540;8.390;2023-06-10T07:21:09;4.63;;;4.33;;
4694;SDS011;2361;49.540;8.390;2023-06-10T07:23:36;5.00;;;4.70;;
4694;SDS011;2361;49.540;8.390;2023-06-10T07:26:03;4.70;;;4.40;;
4694;SDS011;2361;49.540;8.390;2023-06-10T07:28:30;5.23;;;4.90;;
4694;SDS011;2361;49.540;8.390;2023-06-10T07:30:57;5.50;;;5.10;;
4694;SDS011;2361;49.540;8.390;2023-06-10T07:33:24;5.90;;;5.50;;
4694;SDS011;2361;49.540;8.390;2023-06-10T07:35:52;6.30;;;5.90;;
4694;SDS011;2361;49.540;8.390;2023-06-10T07:38:19;5.93;;;5.47;;
4694;SDS011;2361;49.540;8.390;2023-06-10T07:40:46;6.83;;;6.23;;
4694;SDS011;2361;49.540;8.390;2023-06-10T07:43:13;5.50;;;5.20;;
4694;SDS011;2361;49.540;8.390;2023-06-10T07:45:40;4.07;;;3.87;;
4694;SDS011;2361;49.540;8.390;2023-06-10T07:48:07;5.97;;;5.57;;
4694;SDS011;2361;49.540;8.390;2023-06-10T07:50:35;4.40;;;4.10;;
4694;SDS011;2361;49.540;8.390;2023-06-10T07:53:02;4.87;;;4.60;;
4694;SDS011;2361;49.540;8.390;2023-06-10T07:55:29;6.90;;;6.30;;
4694;SDS011;2361;49.540;8.390;2023-06-10T07:57:56;5.23;;;4.83;;
4694;SDS011;2361;49.540;8.390;2023-06-10T08:00:23;5.83;;;5.53;;
4694;SDS011;2361;49.540;8.390;2023-06-10T08:02:50;4.80;;;4.60;;
4694;SDS011;2361;49.540;8.390;2023-06-10T08:05:18;4.93;;;4.53;;
4694;SDS011;2361;49.540;8.390;2023-06-10T08:07:46;5.90;;;5.50;;
4694;SDS011;2361;49.540;8.390;2023-06-10T08:10:13;5.17;;;4.87;;
4694;SDS011;2361;49.540;8.390;2023-06-10T08:12:40;5.30;;;5.00;;
4694;SDS011;2361;49.540;8.390;2023-06-10T08:15:07;5.30;;;5.00;;
4694;SDS011;2361;49.540;8.390;2023-06-10T08:17:36;5.27;;;4.97;;
4694;SDS011;2361;49.540;8.390;2023-06-10T08:20:05;6.00;;;5.53;;
4694;SDS011;2361;49.540;8.390;2023-06-10T08:22:33;5.60;;;5.30;;
4694;SDS011;2361;49.540;8.390;2023-06-10T08:25:00;4.60;;;4.40;;
4694;SDS011;2361;49.540;8.390;2023-06-10T08:27:27;5.87;;;5.57;;
4694;SDS011;2361;49.540;8.390;2023-06-10T08:29:54;6.47;;;5.87;;
4694;SDS011;2361;49.540;8.390;2023-06-10T08:32:21;5.43;;;5.13;;
4694;SDS011;2361;49.540;8.390;2023-06-10T08:34:48;5.80;;;5.50;;
4694;SDS011;2361;49.540;8.390;2023-06-10T08:37:15;4.77;;;4.57;;
4694;SDS011;2361;49.540;8.390;2023-06-10T08:39:42;5.83;;;5.50;;
4694;SDS011;2361;49.540;8.390;2023-06-10T08:45:00;6.23;;;5.83;;
4694;SDS011;2361;49.540;8.390;2023-06-10T08:47:31;5.27;;;5.07;;
4694;SDS011;2361;49.540;8.390;2023-06-10T08:50:03;6.03;;;5.60;;
4694;SDS011;2361;49.540;8.390;2023-06-10T08:52:37;4.80;;;4.60;;
4694;SDS011;2361;49.540;8.390;2023-06-10T08:57:54;4.40;;;4.20;;
4694;SDS011;2361;49.540;8.390;2023-06-10T09:00:24;5.33;;;5.07;;
4694;SDS011;2361;49.540;8.390;2023-06-10T09:02:52;6.17;;;5.77;;
4694;SDS011;2361;49.540;8.390;2023-06-10T09:05:20;5.17;;;4.87;;
4694;SDS011;2361;49.540;8.390;2023-06-10T09:07:48;5.33;;;4.33;;
4694;SDS011;2361;49.540;8.390;2023-06-10T09:10:15;5.70;;;5.40;;
4694;SDS011;2361;49.540;8.390;2023-06-10T09:12:43;4.50;;;4.30;;
4694;SDS011;2361;49.540;8.390;2023-06-10T09:15:10;5.27;;;5.00;;
4694;SDS011;2361;49.540;8.390;2023-06-10T09:17:38;6.00;;;5.70;;
4694;SDS011;2361;49.540;8.390;2023-06-10T09:20:07;4.70;;;4.50;;
4694;SDS011;2361;49.540;8.390;2023-06-10T09:22:36;4.50;;;4.30;;
4694;SDS011;2361;49.540;8.390;2023-06-10T09:25:07;6.10;;;5.80;;
4694;SDS011;2361;49.540;8.390;2023-06-10T09:27:44;5.63;;;5.30;;
4694;SDS011;2361;49.540;8.390;2023-06-10T09:30:27;5.60;;;5.40;;
4694;SDS011;2361;49.540;8.390;2023-06-10T09:33:02;6.20;;;5.90;;
4694;SDS011;2361;49.540;8.390;2023-06-10T09:35:39;5.87;;;5.50;;
4694;SDS011;2361;49.540;8.390;2023-06-10T09:38:13;6.10;;;5.80;;
4694;SDS011;2361;49.540;8.390;2023-06-10T09:40:54;6.17;;;5.80;;
4694;SDS011;2361;49.540;8.390;2023-06-10T09:43:21;5.80;;;5.50;;
4694;SDS011;2361;49.540;8.390;2023-06-10T09:45:49;6.27;;;5.83;;
4694;SDS011;2361;49.540;8.390;2023-06-10T09:48:22;5.60;;;5.33;;
4694;SDS011;2361;49.540;8.390;2023-06-10T09:50:53;5.07;;;4.90;;
4694;SDS011;2361;49.540;8.390;2023-06-10T09:53:20;6.37;;;5.93;;
4694;SDS011;2361;49.540;8.390;2023-06-10T09:55:47;5.73;;;5.43;;
4694;SDS011;2361;49.540;8.390;2023-06-10T09:58:14;5.40;;;5.10;;
4694;SDS011;2361;49.540;8.390;2023-06-10T10:00:41;7.17;;;6.73;;
4694;SDS011;2361;49.540;8.390;2023-06-10T10:03:08;5.73;;;5.23;;
4694;SDS011;2361;49.540;8.390;2023-06-10T10:05:36;7.30;;;6.90;;
4694;SDS011;2361;49.540;8.390;2023-06-10T10:08:03;6.60;;;6.10;;
4694;SDS011;2361;49.540;8.390;2023-06-10T10:10:30;7.40;;;6.80;;
4694;SDS011;2361;49.540;8.390;2023-06-10T10:12:57;7.13;;;6.63;;
4694;SDS011;2361;49.540;8.390;2023-06-10T10:15:27;6.20;;;5.70;;
4694;SDS011;2361;49.540;8.390;2023-06-10T10:18:00;6.80;;;6.30;;
4694;SDS011;2361;49.540;8.390;2023-06-10T10:20:34;8.23;;;6.80;;
4694;SDS011;2361;49.540;8.390;2023-06-10T10:23:14;6.20;;;5.70;;
4694;SDS011;2361;49.540;8.390;2023-06-10T10:25:49;5.90;;;5.30;;
4694;SDS011;2361;49.540;8.390;2023-06-10T10:28:19;6.07;;;5.40;;
4694;SDS011;2361;49.540;8.390;2023-06-10T10:30:50;6.80;;;6.10;;
4694;SDS011;2361;49.540;8.390;2023-06-10T10:33:21;6.67;;;6.07;;
4694;SDS011;2361;49.540;8.390;2023-06-10T10:36:03;6.17;;;5.67;;
4694;SDS011;2361;49.540;8.390;2023-06-10T10:38:31;3.47;;;3.17;;
4694;SDS011;2361;49.540;8.390;2023-06-10T10:41:00;4.00;;;3.03;;
4694;SDS011;2361;49.540;8.390;2023-06-10T10:43:31;4.47;;;3.90;;
4694;SDS011;2361;49.540;8.390;2023-06-10T10:46:00;4.03;;;3.60;;
4694;SDS011;2361;49.540;8.390;2023-06-10T10:48:37;3.57;;;3.27;;
4694;SDS011;2361;49.540;8.390;2023-06-10T10:51:08;4.17;;;3.87;;
4694;SDS011;2361;49.540;8.390;2023-06-10T10:53:39;3.00;;;2.70;;
4694;SDS011;2361;49.540;8.390;2023-06-10T10:58:40;4.63;;;4.23;;
4694;SDS011;2361;49.540;8.390;2023-06-10T11:01:13;2.20;;;1.40;;
4694;SDS011;2361;49.540;8.390;2023-06-10T11:03:44;4.00;;;3.60;;
4694;SDS011;2361;49.540;8.390;2023-06-10T11:06:14;2.67;;;2.47;;
4694;SDS011;2361;49.540;8.390;2023-06-10T11:11:20;3.77;;;3.40;;
4694;SDS011;2361;49.540;8.390;2023-06-10T11:16:42;5.67;;;4.07;;
4694;SDS011;2361;49.540;8.390;2023-06-10T11:19:10;13.33;;;7.83;;
4694;SDS011;2361;49.540;8.390;2023-06-10T11:22:05;2.63;;;2.00;;
4694;SDS011;2361;49.540;8.390;2023-06-10T11:24:36;2.20;;;1.67;;
4694;SDS011;2361;49.540;8.390;2023-06-10T11:27:19;0.67;;;0.67;;
4694;SDS011;2361;49.540;8.390;2023-06-10T11:32:33;6.07;;;4.90;;
4694;SDS011;2361;49.540;8.390;2023-06-10T11:35:06;4.87;;;4.47;;
4694;SDS011;2361;49.540;8.390;2023-06-10T11:37:35;5.00;;;4.57;;
4694;SDS011;2361;49.540;8.390;2023-06-10T11:40:02;5.47;;;4.50;;
4694;SDS011;2361;49.540;8.390;2023-06-10T11:42:30;3.43;;;3.13;;
4694;SDS011;2361;49.540;8.390;2023-06-10T11:44:57;5.47;;;4.57;;
4694;SDS011;2361;49.540;8.390;2023-06-10T11:47:24;4.30;;;4.00;;
4694;SDS011;2361;49.540;8.390;2023-06-10T11:49:56;4.50;;;4.10;;
4694;SDS011;2361;49.540;8.390;2023-06-10T11:52:27;11.10;;;4.33;;
4694;SDS011;2361;49.540;8.390;2023-06-10T11:55:06;5.37;;;4.63;;
4694;SDS011;2361;49.540;8.390;2023-06-10T11:57:36;4.20;;;3.90;;
4694;SDS011;2361;49.540;8.390;2023-06-10T12:00:04;4.13;;;3.83;;
4694;SDS011;2361;49.540;8.390;2023-06-10T12:02:33;4.20;;;3.90;;
4694;SDS011;2361;49.540;8.390;2023-06-10T12:05:11;4.47;;;3.70;;
4694;SDS011;2361;49.540;8.390;2023-06-10T12:07:39;8.30;;;3.97;;
4694;SDS011;2361;49.540;8.390;2023-06-10T12:10:06;4.03;;;3.53;;
4694;SDS011;2361;49.540;8.390;2023-06-10T12:12:51;3.17;;;2.97;;
4694;SDS011;2361;49.540;8.390;2023-06-10T12:15:24;4.43;;;4.10;;
4694;SDS011;2361;49.540;8.390;2023-06-10T12:17:51;3.07;;;2.87;;
4694;SDS011;2361;49.540;8.390;2023-06-10T12:20:29;3.90;;;2.73;;
4694;SDS011;2361;49.540;8.390;2023-06-10T12:23:00;2.90;;;2.70;;
4694;SDS011;2361;49.540;8.390;2023-06-10T12:25:35;0.97;;;0.60;;
4694;SDS011;2361;49.540;8.390;2023-06-10T12:28:09;3.33;;;3.13;;
4694;SDS011;2361;49.540;8.390;2023-06-10T12:30:37;4.17;;;3.87;;
4694;SDS011;2361;49.540;8.390;2023-06-10T12:33:04;4.27;;;3.97;;
4694;SDS011;2361;49.540;8.390;2023-06-10T12:35:49;3.90;;;3.60;;
4694;SDS011;2361;49.540;8.390;2023-06-10T12:38:21;3.70;;;3.30;;
4694;SDS011;2361;49.540;8.390;2023-06-10T12:41:02;3.50;;;3.30;;
4694;SDS011;2361;49.540;8.390;2023-06-10T12:43:32;3.00;;;2.80;;
4694;SDS011;2361;49.540;8.390;2023-06-10T12:46:10;3.83;;;3.60;;
4694;SDS011;2361;49.540;8.390;2023-06-10T12:48:43;2.00;;;1.73;;
4694;SDS011;2361;49.540;8.390;2023-06-10T12:51:21;3.40;;;3.10;;
4694;SDS011;2361;49.540;8.390;2023-06-10T12:53:48;3.37;;;2.80;;
4694;SDS011;2361;49.540;8.390;2023-06-10T12:56:15;3.90;;;3.60;;
4694;SDS011;2361;49.540;8.390;2023-06-10T12:58:42;4.50;;;4.20;;
4694;SDS011;2361;49.540;8.390;2023-06-10T13:01:11;4.43;;;4.03;;
4694;SDS011;2361;49.540;8.390;2023-06-10T13:03:39;15.93;;;10.10;;
4694;SDS011;2361;49.540;8.390;2023-06-10T13:06:06;6.03;;;4.03;;
4694;SDS011;2361;49.540;8.390;2023-06-10T13:08:33;7.90;;;5.30;;
4694;SDS011;2361;49.540;8.390;2023-06-10T13:11:01;3.77;;;3.47;;
4694;SDS011;2361;49.540;8.390;2023-06-10T13:13:28;4.67;;;3.20;;
4694;SDS011;2361;49.540;8.390;2023-06-10T13:15:55;4.30;;;4.00;;
4694;SDS011;2361;49.540;8.390;2023-06-10T13:18:22;1.90;;;1.80;;
4694;SDS011;2361;49.540;8.390;2023-06-10T13:20:49;4.03;;;3.73;;
4694;SDS011;2361;49.540;8.390;2023-06-10T13:23:16;3.60;;;3.30;;
4694;SDS011;2361;49.540;8.390;2023-06-10T13:25:43;4.70;;;4.30;;
4694;SDS011;2361;49.540;8.390;2023-06-10T13:28:10;3.17;;;2.90;;
4694;SDS011;2361;49.540;8.390;2023-06-10T13:30:38;4.80;;;3.67;;
4694;SDS011;2361;49.540;8.390;2023-06-10T13:33:05;4.07;;;3.77;;
4694;SDS011;2361;49.540;8.390;2023-06-10T13:35:32;2.03;;;1.93;;
4694;SDS011;2361;49.540;8.390;2023-06-10T13:37:59;3.10;;;2.90;;
4694;SDS011;2361;49.540;8.390;2023-06-10T13:40:27;1.90;;;1.80;;
4694;SDS011;2361;49.540;8.390;2023-06-10T13:42:54;3.70;;;3.40;;
4694;SDS011;2361;49.540;8.390;2023-06-10T13:45:21;3.93;;;3.60;;
4694;SDS011;2361;49.540;8.390;2023-06-10T13:47:48;4.30;;;3.90;;
4694;SDS011;2361;49.540;8.390;2023-06-10T13:50:18;2.07;;;1.70;;
4694;SDS011;2361;49.540;8.390;2023-06-10T13:52:47;3.60;;;3.30;;
4694;SDS011;2361;49.540;8.390;2023-06-10T13:55:14;4.47;;;4.17;;
4694;SDS011;2361;49.540;8.390;2023-06-10T13:57:42;4.10;;;3.73;;
4694;SDS011;2361;49.540;8.390;2023-06-10T14:00:09;3.50;;;3.30;;
4694;SDS011;2361;49.540;8.390;2023-06-10T14:02:37;2.73;;;2.60;;
4694;SDS011;2361;49.540;8.390;2023-06-10T14:05:08;3.13;;;2.93;;
4694;SDS011;2361;49.540;8.390;2023-06-10T14:07:35;9.43;;;7.00;;
4694;SDS011;2361;49.540;8.390;2023-06-10T14:10:03;11.23;;;7.87;;
4694;SDS011;2361;49.540;8.390;2023-06-10T14:12:31;4.37;;;3.17;;
4694;SDS011;2361;49.540;8.390;2023-06-10T14:14:58;3.00;;;2.80;;
4694;SDS011;2361;49.540;8.390;2023-06-10T14:17:25;1.73;;;1.50;;
4694;SDS011;2361;49.540;8.390;2023-06-10T14:19:52;2.87;;;2.67;;
4694;SDS011;2361;49.540;8.390;2023-06-10T14:22:19;3.50;;;3.17;;
4694;SDS011;2361;49.540;8.390;2023-06-10T14:24:46;3.10;;;2.40;;
4694;SDS011;2361;49.540;8.390;2023-06-10T14:27:13;2.80;;;2.60;;
4694;SDS011;2361;49.540;8.390;2023-06-10T14:29:41;3.80;;;3.50;;
4694;SDS011;2361;49.540;8.390;2023-06-10T14:32:10;4.23;;;3.93;;
4694;SDS011;2361;49.540;8.390;2023-06-10T14:34:37;3.43;;;3.23;;
4694;SDS011;2361;49.540;8.390;2023-06-10T14:37:05;5.17;;;4.23;;
4694;SDS011;2361;49.540;8.390;2023-06-10T14:39:33;4.17;;;3.87;;
4694;SDS011;2361;49.540;8.390;2023-06-10T14:42:01;3.90;;;3.60;;
4694;SDS011;2361;49.540;8.390;2023-06-10T14:44:28;3.70;;;3.43;;
4694;SDS011;2361;49.540;8.390;2023-06-10T14:46:55;2.97;;;2.83;;
4694;SDS011;2361;49.540;8.390;2023-06-10T14:49:22;4.00;;;3.70;;
4694;SDS011;2361;49.540;8.390;2023-06-10T14:51:49;4.53;;;3.67;;
4694;SDS011;2361;49.540;8.390;2023-06-10T14:54:16;2.90;;;2.70;;
4694;SDS011;2361;49.540;8.390;2023-06-10T14:56:43;3.83;;;3.37;;
4694;SDS011;2361;49.540;8.390;2023-06-10T14:59:10;4.77;;;3.63;;
4694;SDS011;2361;49.540;8.390;2023-06-10T15:01:37;3.30;;;3.10;;
4694;SDS011;2361;49.540;8.390;2023-06-10T15:04:04;2.97;;;2.77;;
4694;SDS011;2361;49.540;8.390;2023-06-10T15:06:31;3.37;;;3.07;;
4694;SDS011;2361;49.540;8.390;2023-06-10T15:08:58;3.20;;;2.90;;
4694;SDS011;2361;49.540;8.390;2023-06-10T15:11:25;3.47;;;3.17;;
4694;SDS011;2361;49.540;8.390;2023-06-10T15:13:52;3.40;;;2.63;;
4694;SDS011;2361;49.540;8.390;2023-06-10T15:16:19;3.00;;;2.70;;
4694;SDS011;2361;49.540;8.390;2023-06-10T15:18:46;3.00;;;2.73;;
4694;SDS011;2361;49.540;8.390;2023-06-10T15:21:13;2.67;;;2.57;;
4694;SDS011;2361;49.540;8.390;2023-06-10T15:23:40;3.40;;;3.20;;
4694;SDS011;2361;49.540;8.390;2023-06-10T15:26:07;4.10;;;3.27;;
4694;SDS011;2361;49.540;8.390;2023-06-10T15:28:34;3.73;;;3.50;;
4694;SDS011;2361;49.540;8.390;2023-06-10T15:31:01;3.87;;;3.57;;
4694;SDS011;2361;49.540;8.390;2023-06-10T15:33:28;3.20;;;3.00;;
4694;SDS011;2361;49.540;8.390;2023-06-10T15:35:58;2.90;;;2.70;;
4694;SDS011;2361;49.540;8.390;2023-06-10T15:38:25;3.20;;;3.00;;
4694;SDS011;2361;49.540;8.390;2023-06-10T15:40:52;4.83;;;4.50;;
4694;SDS011;2361;49.540;8.390;2023-06-10T15:43:20;3.80;;;3.50;;
4694;SDS011;2361;49.540;8.390;2023-06-10T15:45:47;4.87;;;2.00;;